createdAt,value
2023-10-29T00:03:21.474Z,98509.38
2023-10-29T00:13:26.512Z,98499.69
2023-10-29T00:23:29.420Z,98488.91
2023-10-29T00:33:33.718Z,98469.66
2023-10-29T00:43:40.972Z,98454.13
2023-10-29T00:53:46.231Z,98448.72
2023-10-29T01:03:49.486Z,98468.94
2023-10-29T01:13:53.770Z,98468.53
2023-10-29T01:23:56.670Z,98446.63
2023-10-29T01:34:00.894Z,98450.09
2023-10-29T01:44:03.717Z,98452.22
2023-10-29T01:54:08.130Z,98408.19
2023-10-29T02:04:11.132Z,98384.34
2023-10-29T02:14:15.382Z,98366.25
2023-10-29T02:24:19.634Z,98358.44
2023-10-29T02:34:22.461Z,98330.41
2023-10-29T02:44:26.621Z,98387.22
2023-10-29T02:54:29.760Z,98389.00
2023-10-29T03:04:35.200Z,98396.03
2023-10-29T03:14:38.035Z,98388.13
2023-10-29T03:24:42.368Z,98382.97
2023-10-29T03:34:45.254Z,98389.22
2023-10-29T03:44:49.632Z,98404.97
2023-10-29T03:54:52.687Z,98430.81
2023-10-29T04:05:06.158Z,98418.22
2023-10-29T04:15:13.016Z,98414.59
2023-10-29T04:25:17.611Z,98418.31
2023-10-29T04:35:20.618Z,98405.47
2023-10-29T04:45:24.812Z,98407.34
2023-10-29T04:55:29.668Z,98428.50
2023-10-29T05:05:33.897Z,98443.69
2023-10-29T05:15:36.733Z,98442.94
2023-10-29T05:25:42.029Z,98429.97
2023-10-29T05:35:44.961Z,98439.78
2023-10-29T05:45:49.223Z,98456.19
2023-10-29T05:55:52.081Z,98460.59
2023-10-29T06:05:56.978Z,98488.06
2023-10-29T06:15:59.907Z,98495.06
2023-10-29T06:26:08.810Z,98505.72
2023-10-29T06:36:11.852Z,98480.41
2023-10-29T06:46:16.503Z,98461.22
2023-10-29T06:56:19.326Z,98407.28
2023-10-29T07:06:24.215Z,98436.91
2023-10-29T07:16:27.082Z,98463.91
2023-10-29T07:26:31.337Z,98459.56
2023-10-29T07:36:34.186Z,98448.88
2023-10-29T07:46:38.707Z,98399.84
2023-10-29T07:56:42.319Z,98392.03
2023-10-29T08:06:47.039Z,98406.56
2023-10-29T08:16:49.872Z,98400.25
2023-10-29T08:26:54.064Z,98388.78
2023-10-29T08:36:56.976Z,98391.09
2023-10-29T08:47:01.200Z,98387.38
2023-10-29T08:57:04.083Z,98396.53
2023-10-29T09:07:08.515Z,98429.97
2023-10-29T09:17:11.874Z,98460.75
2023-10-29T09:27:16.042Z,98466.88
2023-10-29T09:37:19.297Z,98531.44
2023-10-29T09:47:24.521Z,98551.47
2023-10-29T09:57:27.789Z,98530.06
2023-10-29T10:07:32.038Z,98528.41
2023-10-29T10:17:34.865Z,98509.84
2023-10-29T10:27:50.849Z,98511.00
2023-10-29T10:37:55.018Z,98544.22
2023-10-29T10:48:00.078Z,98525.63
2023-10-29T10:58:04.436Z,98495.91
2023-10-29T11:08:08.591Z,98503.84
2023-10-29T11:18:13.703Z,98521.94
2023-10-29T11:28:46.167Z,98521.22
2023-10-29T11:38:49.005Z,98526.88
2023-10-29T11:49:06.592Z,98551.00
2023-10-29T11:59:09.423Z,98556.47
2023-10-29T12:09:21.018Z,98553.19
2023-10-29T12:19:36.304Z,98541.41
2023-10-29T12:29:40.518Z,98525.63
2023-10-29T12:39:46.224Z,98535.72
2023-10-29T12:50:01.631Z,98505.19
2023-10-29T13:00:06.814Z,98514.56
2023-10-29T13:10:13.933Z,98531.44
2023-10-29T13:20:16.767Z,98508.41
2023-10-29T13:30:21.025Z,98483.53
2023-10-29T13:40:23.811Z,98462.97
2023-10-29T13:50:28.553Z,98468.34
2023-10-29T14:00:32.267Z,98482.59
2023-10-29T14:10:36.450Z,98379.03
2023-10-29T14:20:39.435Z,98433.16
2023-10-29T14:30:43.761Z,98466.13
2023-10-29T14:40:46.604Z,98452.69
2023-10-29T14:50:53.057Z,98455.19
2023-10-29T15:00:55.950Z,98445.00
2023-10-29T15:11:00.447Z,98453.78
2023-10-29T15:21:10.264Z,98471.25
2023-10-29T15:31:14.847Z,98541.59
2023-10-29T15:41:19.364Z,98540.06
2023-10-29T15:51:26.887Z,98592.84
2023-10-29T16:01:34.021Z,98565.97
2023-10-29T16:11:39.270Z,98568.19
2023-10-29T16:21:43.888Z,98601.28
2023-10-29T16:31:48.093Z,98605.16
2023-10-29T16:41:50.891Z,98619.75
2023-10-29T16:51:55.939Z,98627.53
2023-10-29T17:01:58.752Z,98604.84
2023-10-29T17:12:03.470Z,98609.94
2023-10-29T17:22:06.414Z,98610.31
2023-10-29T17:32:11.308Z,98619.44
2023-10-29T17:42:14.131Z,98643.50
2023-10-29T17:52:25.184Z,98616.69
2023-10-29T18:02:28.230Z,98634.53
2023-10-29T18:12:32.579Z,98650.75
2023-10-29T18:22:35.402Z,98664.50
2023-10-29T18:32:39.723Z,98674.44
2023-10-29T18:42:42.548Z,98687.44
2023-10-29T18:52:46.695Z,98687.72
2023-10-29T19:02:49.532Z,98703.13
2023-10-29T19:12:53.729Z,98706.41
2023-10-29T19:22:56.525Z,98727.41
2023-10-29T19:33:00.821Z,98747.44
2023-10-29T19:43:03.709Z,98750.25
2023-10-29T19:53:07.946Z,98744.47
2023-10-29T20:03:13.608Z,98774.28
2023-10-29T20:13:18.146Z,98769.44
2023-10-29T20:23:21.261Z,98785.69
2023-10-29T20:33:25.519Z,98811.69
2023-10-29T20:43:28.400Z,98816.50
2023-10-29T20:53:33.116Z,98792.56
2023-10-29T21:03:36.246Z,98811.03
2023-10-29T21:13:43.230Z,98825.91
2023-10-29T21:23:47.197Z,98835.13
2023-10-29T21:33:51.705Z,98842.03
2023-10-29T21:43:54.621Z,98831.31
2023-10-29T21:53:58.865Z,98842.22
2023-10-29T22:04:01.818Z,98858.41
2023-10-29T22:14:06.188Z,98834.28
2023-10-29T22:24:09.754Z,98855.66
2023-10-29T22:34:14.021Z,98853.59
2023-10-29T22:44:16.794Z,98846.63
2023-10-29T22:54:21.026Z,98885.13
2023-10-29T23:04:23.935Z,98913.91
2023-10-29T23:14:30.186Z,98933.41
2023-10-29T23:24:33.050Z,98941.59
2023-10-29T23:34:37.949Z,98951.22
2023-10-29T23:44:40.724Z,98952.47
2023-10-29T23:54:46.042Z,98917.34
